Time;durP1;ratioP1;P1;durP2;ratioP2;P2;SDS_P1;SDS_P2;PMS_P1;PMS_P2;Temp;Humidity;BMP_temperature;BMP_pressure;BME280_temperature;BME280_humidity;BME280_pressure;Samples;Min_cycle;Max_cycle;Signal;HPM_P1;HPM_P2
2023/07/29 00:01:12;;;;;;;11.50;7.50;;;;;;;-128.00;-1.00;-1.00;106494;1255;1009933;-69
2023/07/29 00:03:59;;;;;;;12.80;7.20;;;;;;;-128.00;-1.00;-1.00;106607;1253;1011825;-68
2023/07/29 00:06:46;;;;;;;12.00;7.10;;;;;;;-128.00;-1.00;-1.00;106588;1253;1012337;-69
2023/07/29 00:09:33;;;;;;;14.30;7.50;;;;;;;-128.00;-1.00;-1.00;106710;1253;1013145;-70
2023/07/29 00:12:19;;;;;;;13.50;7.40;;;;;;;-128.00;-1.00;-1.00;106612;1254;1013482;-70
2023/07/29 00:15:07;;;;;;;13.20;7.60;;;;;;;-128.00;-1.00;-1.00;106690;1254;1009862;-68
2023/07/29 00:17:55;;;;;;;12.80;8.10;;;;;;;-128.00;-1.00;-1.00;106688;1254;1011194;-69
2023/07/29 00:20:42;;;;;;;12.90;7.80;;;;;;;-128.00;-1.00;-1.00;106674;1260;1012350;-69
2023/07/29 00:23:29;;;;;;;14.70;8.10;;;;;;;-128.00;-1.00;-1.00;106573;1254;1012257;-69
2023/07/29 00:26:21;;;;;;;13.60;7.50;;;;;;;-128.00;-1.00;-1.00;106498;1254;1012751;-70
2023/07/29 00:29:08;;;;;;;13.50;8.10;;;;;;;-128.00;-1.00;-1.00;106618;1253;1010453;-70
2023/07/29 00:31:56;;;;;;;12.80;8.40;;;;;;;-128.00;-1.00;-1.00;106845;1254;1011642;-70
2023/07/29 00:34:43;;;;;;;14.20;8.20;;;;;;;-128.00;-1.00;-1.00;106562;1263;1012974;-71
2023/07/29 00:37:31;;;;;;;12.80;8.10;;;;;;;-128.00;-1.00;-1.00;106660;1254;1012669;-72
2023/07/29 00:40:22;;;;;;;15.20;8.20;;;;;;;-128.00;-1.00;-1.00;106644;1253;1013336;-69
2023/07/29 00:43:09;;;;;;;14.40;7.70;;;;;;;-128.00;-1.00;-1.00;106708;1254;1010411;-67
2023/07/29 00:45:59;;;;;;;14.00;8.10;;;;;;;-128.00;-1.00;-1.00;106601;1254;1011904;-69
2023/07/29 00:48:46;;;;;;;13.90;8.40;;;;;;;-128.00;-1.00;-1.00;106741;1253;1013087;-69
2023/07/29 00:51:33;;;;;;;13.20;7.90;;;;;;;-128.00;-1.00;-1.00;106535;1254;1013320;-69
2023/07/29 00:54:20;;;;;;;15.60;8.10;;;;;;;-128.00;-1.00;-1.00;106671;1253;1013194;-69
2023/07/29 00:57:15;;;;;;;12.80;7.50;;;;;;;-128.00;-1.00;-1.00;106712;1253;1009751;-70
2023/07/29 01:00:04;;;;;;;15.70;8.40;;;;;;;-128.00;-1.00;-1.00;106699;1253;1010697;-69
2023/07/29 01:02:54;;;;;;;15.40;8.10;;;;;;;-128.00;-1.00;-1.00;106771;1254;1012326;-68
2023/07/29 01:06:08;;;;;;;15.10;8.30;;;;;;;-128.00;-1.00;-1.00;106655;1253;1012812;-68
2023/07/29 01:09:09;;;;;;;14.40;8.20;;;;;;;-128.00;-1.00;-1.00;106729;1252;1012627;-70
2023/07/29 01:12:14;;;;;;;15.10;8.40;;;;;;;-128.00;-1.00;-1.00;106599;1253;1010123;-72
2023/07/29 01:15:22;;;;;;;13.90;8.00;;;;;;;-128.00;-1.00;-1.00;106694;1254;1009947;-70
2023/07/29 01:18:33;;;;;;;13.00;8.90;;;;;;;-128.00;-1.00;-1.00;106700;1253;1012390;-69
2023/07/29 01:21:21;;;;;;;14.40;8.50;;;;;;;-128.00;-1.00;-1.00;106879;1253;1012589;-69
2023/07/29 01:24:09;;;;;;;16.30;8.50;;;;;;;-128.00;-1.00;-1.00;106635;1254;1013113;-68
2023/07/29 01:26:56;;;;;;;15.30;9.20;;;;;;;-128.00;-1.00;-1.00;106673;1255;1009526;-68
2023/07/29 01:29:42;;;;;;;14.90;8.50;;;;;;;-128.00;-1.00;-1.00;106798;1254;1011466;-70
2023/07/29 01:32:51;;;;;;;15.10;8.60;;;;;;;-128.00;-1.00;-1.00;106598;1254;1012321;-69
2023/07/29 01:35:47;;;;;;;14.20;8.30;;;;;;;-128.00;-1.00;-1.00;106591;1254;1012474;-68
2023/07/29 01:38:38;;;;;;;18.90;11.00;;;;;;;-128.00;-1.00;-1.00;106572;1254;1012824;-68
2023/07/29 01:41:26;;;;;;;14.20;8.50;;;;;;;-128.00;-1.00;-1.00;106638;1253;1010644;-67
2023/07/29 01:44:14;;;;;;;15.40;8.10;;;;;;;-128.00;-1.00;-1.00;106448;1254;1010747;-69
2023/07/29 01:47:01;;;;;;;13.30;8.10;;;;;;;-128.00;-1.00;-1.00;106579;1254;1013412;-70
2023/07/29 01:49:48;;;;;;;13.70;8.40;;;;;;;-128.00;-1.00;-1.00;106590;1253;1012434;-67
2023/07/29 01:52:36;;;;;;;14.30;8.50;;;;;;;-128.00;-1.00;-1.00;106661;1254;1013104;-69
2023/07/29 01:55:22;;;;;;;13.10;7.60;;;;;;;-128.00;-1.00;-1.00;106592;1254;1009556;-69
2023/07/29 01:58:09;;;;;;;14.10;8.50;;;;;;;-128.00;-1.00;-1.00;106604;1253;1011378;-68
2023/07/29 02:00:57;;;;;;;14.20;8.00;;;;;;;-128.00;-1.00;-1.00;106598;1254;1012459;-68
2023/07/29 02:03:44;;;;;;;13.40;8.10;;;;;;;-128.00;-1.00;-1.00;106624;1254;1012678;-71
2023/07/29 02:06:32;;;;;;;14.00;8.60;;;;;;;-128.00;-1.00;-1.00;106952;1253;1013067;-71
2023/07/29 02:09:20;;;;;;;12.10;7.50;;;;;;;-128.00;-1.00;-1.00;106481;1254;1010015;-70
2023/07/29 02:12:07;;;;;;;13.70;8.30;;;;;;;-128.00;-1.00;-1.00;106693;1254;1011413;-68
2023/07/29 02:14:56;;;;;;;13.10;8.00;;;;;;;-128.00;-1.00;-1.00;106658;1254;1012792;-69
2023/07/29 02:17:43;;;;;;;15.10;8.40;;;;;;;-128.00;-1.00;-1.00;106850;1253;1011909;-70
2023/07/29 02:20:37;;;;;;;14.00;8.00;;;;;;;-128.00;-1.00;-1.00;106831;1253;1012696;-67
2023/07/29 02:23:24;;;;;;;13.50;8.50;;;;;;;-128.00;-1.00;-1.00;106596;1253;1009003;-70
2023/07/29 02:26:11;;;;;;;15.10;8.20;;;;;;;-128.00;-1.00;-1.00;106695;1254;1011380;-68
2023/07/29 02:28:58;;;;;;;13.30;8.20;;;;;;;-128.00;-1.00;-1.00;106678;1254;1012682;-68
2023/07/29 02:31:45;;;;;;;11.70;7.10;;;;;;;-128.00;-1.00;-1.00;106752;1260;1011980;-69
2023/07/29 02:34:32;;;;;;;13.00;7.80;;;;;;;-128.00;-1.00;-1.00;106657;1254;1012736;-67
2023/07/29 02:37:18;;;;;;;13.80;8.50;;;;;;;-128.00;-1.00;-1.00;106697;1253;1009305;-68
2023/07/29 02:40:06;;;;;;;13.00;7.90;;;;;;;-128.00;-1.00;-1.00;106552;1253;1011237;-69
2023/07/29 02:42:53;;;;;;;14.20;8.20;;;;;;;-128.00;-1.00;-1.00;106678;1254;1013185;-67
2023/07/29 02:45:41;;;;;;;13.90;8.20;;;;;;;-128.00;-1.00;-1.00;106564;1254;1012458;-70
2023/07/29 02:48:28;;;;;;;13.70;8.20;;;;;;;-128.00;-1.00;-1.00;106477;1254;1012881;-67
2023/07/29 02:51:15;;;;;;;14.20;8.40;;;;;;;-128.00;-1.00;-1.00;106449;1254;1009801;-70
2023/07/29 02:54:02;;;;;;;15.70;8.20;;;;;;;-128.00;-1.00;-1.00;106497;1254;1010632;-69
2023/07/29 02:56:50;;;;;;;14.70;8.10;;;;;;;-128.00;-1.00;-1.00;106580;1257;1012174;-70
2023/07/29 02:59:38;;;;;;;12.10;7.60;;;;;;;-128.00;-1.00;-1.00;106846;1254;1013370;-70
2023/07/29 03:02:24;;;;;;;12.60;7.50;;;;;;;-128.00;-1.00;-1.00;106914;1253;1012865;-67
2023/07/29 03:05:13;;;;;;;14.50;8.20;;;;;;;-128.00;-1.00;-1.00;106904;1253;1010814;-68
2023/07/29 03:08:01;;;;;;;14.50;8.70;;;;;;;-128.00;-1.00;-1.00;106628;1253;1010397;-68
2023/07/29 03:10:47;;;;;;;13.00;8.30;;;;;;;-128.00;-1.00;-1.00;106910;1253;1012390;-69
2023/07/29 03:13:34;;;;;;;14.60;9.70;;;;;;;-128.00;-1.00;-1.00;106797;1253;1013178;-67
2023/07/29 03:16:22;;;;;;;13.90;8.10;;;;;;;-128.00;-1.00;-1.00;106724;1253;1013911;-68
2023/07/29 03:19:12;;;;;;;13.60;8.20;;;;;;;-128.00;-1.00;-1.00;106600;1252;1009931;-69
2023/07/29 03:21:59;;;;;;;14.10;8.60;;;;;;;-128.00;-1.00;-1.00;106767;1254;1010571;-69
2023/07/29 03:24:46;;;;;;;14.00;8.00;;;;;;;-128.00;-1.00;-1.00;106522;1253;1013093;-68
2023/07/29 03:27:33;;;;;;;12.20;7.50;;;;;;;-128.00;-1.00;-1.00;106623;1254;1012558;-66
2023/07/29 03:30:22;;;;;;;14.10;7.90;;;;;;;-128.00;-1.00;-1.00;106604;1253;1013561;-71
2023/07/29 03:33:10;;;;;;;12.30;6.80;;;;;;;-128.00;-1.00;-1.00;106784;1254;1009735;-70
2023/07/29 03:35:57;;;;;;;13.70;8.30;;;;;;;-128.00;-1.00;-1.00;106472;1255;1010651;-69
2023/07/29 03:38:44;;;;;;;13.30;8.60;;;;;;;-128.00;-1.00;-1.00;106715;1254;1012502;-68
2023/07/29 03:41:31;;;;;;;13.90;8.50;;;;;;;-128.00;-1.00;-1.00;106519;1257;1012190;-68
2023/07/29 03:44:18;;;;;;;16.20;8.10;;;;;;;-128.00;-1.00;-1.00;106643;1253;1013808;-70
2023/07/29 03:47:07;;;;;;;13.20;7.70;;;;;;;-128.00;-1.00;-1.00;106518;1260;1009756;-71
2023/07/29 03:49:54;;;;;;;15.40;10.10;;;;;;;-128.00;-1.00;-1.00;106489;1253;1011794;-71
2023/07/29 03:52:42;;;;;;;15.00;9.50;;;;;;;-128.00;-1.00;-1.00;106734;1253;1013030;-71
2023/07/29 03:55:31;;;;;;;15.60;8.00;;;;;;;-128.00;-1.00;-1.00;106449;1260;1013189;-71
2023/07/29 03:58:18;;;;;;;14.30;8.40;;;;;;;-128.00;-1.00;-1.00;106502;1254;1012997;-70
2023/07/29 04:01:05;;;;;;;14.90;9.00;;;;;;;-128.00;-1.00;-1.00;106666;1253;1009458;-69
2023/07/29 04:03:52;;;;;;;13.60;8.70;;;;;;;-128.00;-1.00;-1.00;106616;1253;1010777;-69
2023/07/29 04:06:39;;;;;;;13.20;7.80;;;;;;;-128.00;-1.00;-1.00;106507;1253;1013381;-71
2023/07/29 04:09:28;;;;;;;13.60;7.90;;;;;;;-128.00;-1.00;-1.00;106847;1253;1013263;-67
2023/07/29 04:12:16;;;;;;;13.50;8.20;;;;;;;-128.00;-1.00;-1.00;106625;1253;1013027;-71
2023/07/29 04:15:08;;;;;;;14.80;7.80;;;;;;;-128.00;-1.00;-1.00;106613;1253;1009290;-68
2023/07/29 04:17:54;;;;;;;13.20;8.00;;;;;;;-128.00;-1.00;-1.00;106510;1254;1011121;-71
2023/07/29 04:20:41;;;;;;;12.60;7.30;;;;;;;-128.00;-1.00;-1.00;106476;1254;1012985;-72
2023/07/29 04:23:28;;;;;;;12.80;7.50;;;;;;;-128.00;-1.00;-1.00;106575;1254;1012489;-70
2023/07/29 04:26:14;;;;;;;11.30;6.20;;;;;;;-128.00;-1.00;-1.00;106745;1253;1012473;-70
2023/07/29 04:29:01;;;;;;;12.50;7.80;;;;;;;-128.00;-1.00;-1.00;106811;1253;1009520;-71
2023/07/29 04:31:50;;;;;;;14.80;7.10;;;;;;;-128.00;-1.00;-1.00;106811;1253;1011524;-70
2023/07/29 04:34:38;;;;;;;12.00;7.10;;;;;;;-128.00;-1.00;-1.00;106532;1252;1012205;-70
2023/07/29 04:37:26;;;;;;;13.30;7.50;;;;;;;-128.00;-1.00;-1.00;106475;1253;1013240;-71
2023/07/29 04:40:13;;;;;;;12.80;7.90;;;;;;;-128.00;-1.00;-1.00;106495;1253;1013139;-72
2023/07/29 04:43:02;;;;;;;13.10;7.20;;;;;;;-128.00;-1.00;-1.00;106789;1253;1009483;-72
2023/07/29 04:45:50;;;;;;;13.40;7.60;;;;;;;-128.00;-1.00;-1.00;106662;1253;1010644;-73
2023/07/29 04:48:37;;;;;;;12.80;7.50;;;;;;;-128.00;-1.00;-1.00;106635;1253;1012467;-72
2023/07/29 04:51:25;;;;;;;13.40;7.80;;;;;;;-128.00;-1.00;-1.00;106599;1253;1013144;-72
2023/07/29 04:54:14;;;;;;;12.40;7.30;;;;;;;-128.00;-1.00;-1.00;106365;1254;1012391;-70
2023/07/29 04:57:01;;;;;;;11.40;6.50;;;;;;;-128.00;-1.00;-1.00;106537;1254;1010724;-71
2023/07/29 04:59:49;;;;;;;11.60;7.00;;;;;;;-128.00;-1.00;-1.00;106444;1253;1011544;-72
2023/07/29 05:02:35;;;;;;;12.20;7.10;;;;;;;-128.00;-1.00;-1.00;106526;1257;1013451;-72
2023/07/29 05:05:22;;;;;;;10.40;6.30;;;;;;;-128.00;-1.00;-1.00;106604;1253;1012054;-70
2023/07/29 05:08:10;;;;;;;11.20;6.20;;;;;;;-128.00;-1.00;-1.00;106580;1252;1012304;-70
2023/07/29 05:10:59;;;;;;;10.80;5.90;;;;;;;-128.00;-1.00;-1.00;106686;1253;1010026;-71
2023/07/29 05:13:45;;;;;;;11.40;6.70;;;;;;;-128.00;-1.00;-1.00;106475;1254;1010230;-71
2023/07/29 05:16:32;;;;;;;10.60;5.50;;;;;;;-128.00;-1.00;-1.00;106630;1253;1012964;-73
2023/07/29 05:19:19;;;;;;;12.60;6.50;;;;;;;-128.00;-1.00;-1.00;106653;1253;1012951;-70
2023/07/29 05:22:12;;;;;;;11.50;5.70;;;;;;;-128.00;-1.00;-1.00;106572;1253;1012599;-70
2023/07/29 05:25:02;;;;;;;9.60;5.40;;;;;;;-128.00;-1.00;-1.00;106532;1253;1009690;-72
2023/07/29 05:27:51;;;;;;;9.60;4.90;;;;;;;-128.00;-1.00;-1.00;106513;1252;1010328;-74
2023/07/29 05:30:40;;;;;;;7.80;4.50;;;;;;;-128.00;-1.00;-1.00;106555;1253;1012496;-69
2023/07/29 05:33:30;;;;;;;7.40;4.00;;;;;;;-128.00;-1.00;-1.00;106598;1253;1012354;-70
2023/07/29 05:36:17;;;;;;;8.70;3.70;;;;;;;-128.00;-1.00;-1.00;106470;1253;1013117;-72
2023/07/29 05:39:03;;;;;;;7.20;3.50;;;;;;;-128.00;-1.00;-1.00;106653;1253;1009892;-70
2023/07/29 05:41:51;;;;;;;7.00;3.30;;;;;;;-128.00;-1.00;-1.00;106693;1253;1010714;-72
2023/07/29 05:44:37;;;;;;;8.10;3.50;;;;;;;-128.00;-1.00;-1.00;106422;1253;1012764;-70
2023/07/29 05:47:24;;;;;;;7.20;3.20;;;;;;;-128.00;-1.00;-1.00;106444;1253;1012082;-70
2023/07/29 05:50:10;;;;;;;7.30;3.30;;;;;;;-128.00;-1.00;-1.00;106443;1253;1013456;-73
2023/07/29 05:52:57;;;;;;;6.20;2.80;;;;;;;-128.00;-1.00;-1.00;106791;1253;1009253;-68
2023/07/29 05:55:46;;;;;;;8.90;3.30;;;;;;;-128.00;-1.00;-1.00;106659;1252;1010996;-72
2023/07/29 05:58:33;;;;;;;8.00;2.70;;;;;;;-128.00;-1.00;-1.00;106535;1253;1012774;-70
2023/07/29 06:01:29;;;;;;;6.60;2.70;;;;;;;-128.00;-1.00;-1.00;106668;1253;1012232;-75
2023/07/29 06:04:15;;;;;;;6.80;2.70;;;;;;;-128.00;-1.00;-1.00;106528;1253;1012736;-72
2023/07/29 06:07:03;;;;;;;6.60;2.70;;;;;;;-128.00;-1.00;-1.00;106697;1253;1010299;-72
2023/07/29 06:09:51;;;;;;;6.50;2.60;;;;;;;-128.00;-1.00;-1.00;106699;1253;1011321;-72
2023/07/29 06:12:39;;;;;;;6.60;2.40;;;;;;;-128.00;-1.00;-1.00;106526;1253;1013509;-74
2023/07/29 06:15:27;;;;;;;6.40;2.50;;;;;;;-128.00;-1.00;-1.00;106667;1253;1012725;-70
2023/07/29 06:18:14;;;;;;;7.10;2.70;;;;;;;-128.00;-1.00;-1.00;106577;1253;1013090;-68
2023/07/29 06:21:01;;;;;;;6.30;2.30;;;;;;;-128.00;-1.00;-1.00;106743;1252;1009896;-71
2023/07/29 06:23:50;;;;;;;6.30;2.00;;;;;;;-128.00;-1.00;-1.00;106546;1253;1010933;-75
2023/07/29 06:26:37;;;;;;;6.20;2.30;;;;;;;-128.00;-1.00;-1.00;106548;1253;1012445;-69
2023/07/29 06:29:25;;;;;;;8.50;2.30;;;;;;;-128.00;-1.00;-1.00;106912;1253;1012737;-73
2023/07/29 06:32:14;;;;;;;7.90;2.10;;;;;;;-128.00;-1.00;-1.00;106551;1252;1013133;-71
2023/07/29 06:35:08;;;;;;;7.50;2.30;;;;;;;-128.00;-1.00;-1.00;106471;1253;1010049;-69
2023/07/29 06:37:55;;;;;;;7.00;1.90;;;;;;;-128.00;-1.00;-1.00;106612;1253;1011807;-73
2023/07/29 06:40:42;;;;;;;6.50;1.80;;;;;;;-128.00;-1.00;-1.00;106428;1253;1012574;-72
2023/07/29 06:43:30;;;;;;;7.10;1.80;;;;;;;-128.00;-1.00;-1.00;106643;1253;1012738;-72
2023/07/29 06:46:17;;;;;;;6.80;2.20;;;;;;;-128.00;-1.00;-1.00;106285;1257;1012406;-71
2023/07/29 06:49:05;;;;;;;6.00;1.70;;;;;;;-128.00;-1.00;-1.00;106293;1257;1010575;-72
2023/07/29 06:51:54;;;;;;;5.70;1.80;;;;;;;-128.00;-1.00;-1.00;106292;1258;1011801;-73
2023/07/29 06:54:47;;;;;;;6.80;1.70;;;;;;;-128.00;-1.00;-1.00;106372;1257;1012480;-70
2023/07/29 06:57:35;;;;;;;6.70;1.70;;;;;;;-128.00;-1.00;-1.00;106347;1261;1012990;-73
2023/07/29 07:00:22;;;;;;;6.20;1.70;;;;;;;-128.00;-1.00;-1.00;106310;1257;1012741;-71
2023/07/29 07:03:09;;;;;;;7.60;1.70;;;;;;;-128.00;-1.00;-1.00;106393;1257;1009973;-69
2023/07/29 07:05:57;;;;;;;5.60;1.80;;;;;;;-128.00;-1.00;-1.00;106356;1257;1010846;-73
2023/07/29 07:08:44;;;;;;;6.00;1.80;;;;;;;-128.00;-1.00;-1.00;106429;1257;1012724;-68
2023/07/29 07:11:35;;;;;;;6.10;1.70;;;;;;;-128.00;-1.00;-1.00;106482;1257;1012916;-69
2023/07/29 07:14:25;;;;;;;5.80;1.60;;;;;;;-128.00;-1.00;-1.00;106318;1257;1012007;-72
2023/07/29 07:17:13;;;;;;;6.00;1.60;;;;;;;-128.00;-1.00;-1.00;106499;1254;1010302;-72
2023/07/29 07:20:14;;;;;;;6.00;1.50;;;;;;;-128.00;-1.00;-1.00;106633;1253;1011252;-72
2023/07/29 07:23:13;;;;;;;6.60;1.80;;;;;;;-128.00;-1.00;-1.00;106247;1259;1012331;-68
2023/07/29 07:26:00;;;;;;;6.60;1.70;;;;;;;-128.00;-1.00;-1.00;106348;1263;1011929;-73
2023/07/29 07:28:52;;;;;;;6.90;1.70;;;;;;;-128.00;-1.00;-1.00;106224;1258;1013764;-70
2023/07/29 07:31:53;;;;;;;8.30;2.20;;;;;;;-128.00;-1.00;-1.00;106396;1258;1009746;-70
2023/07/29 07:34:52;;;;;;;6.10;1.80;;;;;;;-128.00;-1.00;-1.00;106325;1259;1010708;-74
2023/07/29 07:37:41;;;;;;;6.80;2.30;;;;;;;-128.00;-1.00;-1.00;106233;1258;1012699;-78
2023/07/29 07:40:35;;;;;;;5.90;1.80;;;;;;;-128.00;-1.00;-1.00;106288;1258;1013191;-77
2023/07/29 07:43:33;;;;;;;7.00;2.00;;;;;;;-128.00;-1.00;-1.00;106349;1258;1012838;-73
2023/07/29 07:46:31;;;;;;;9.60;4.10;;;;;;;-128.00;-1.00;-1.00;106415;1254;1010585;-74
2023/07/29 07:49:26;;;;;;;7.90;2.20;;;;;;;-128.00;-1.00;-1.00;106618;1253;1011581;-74
2023/07/29 07:52:24;;;;;;;6.30;1.70;;;;;;;-128.00;-1.00;-1.00;106667;1253;1013104;-76
2023/07/29 07:55:16;;;;;;;8.70;2.60;;;;;;;-128.00;-1.00;-1.00;106522;1253;1012824;-74
2023/07/29 07:58:08;;;;;;;8.00;2.70;;;;;;;-128.00;-1.00;-1.00;106526;1254;1012762;-74
2023/07/29 08:01:05;;;;;;;6.20;2.00;;;;;;;-128.00;-1.00;-1.00;106769;1254;1009523;-74
2023/07/29 08:03:52;;;;;;;6.50;2.00;;;;;;;-128.00;-1.00;-1.00;106637;1254;1011110;-75
2023/07/29 08:06:44;;;;;;;6.30;2.00;;;;;;;-128.00;-1.00;-1.00;106582;1254;1012306;-74
2023/07/29 08:09:35;;;;;;;6.50;1.70;;;;;;;-128.00;-1.00;-1.00;106612;1253;1012883;-76
2023/07/29 08:12:22;;;;;;;7.50;1.90;;;;;;;-128.00;-1.00;-1.00;106527;1254;1012758;-75
2023/07/29 08:15:17;;;;;;;7.90;2.10;;;;;;;-128.00;-1.00;-1.00;106521;1254;1009919;-76
2023/07/29 08:18:05;;;;;;;8.40;1.90;;;;;;;-128.00;-1.00;-1.00;106636;1254;1010614;-72
2023/07/29 08:20:59;;;;;;;6.70;1.80;;;;;;;-128.00;-1.00;-1.00;106530;1254;1013038;-73
2023/07/29 08:23:45;;;;;;;6.30;2.00;;;;;;;-128.00;-1.00;-1.00;106614;1253;1012427;-72
2023/07/29 08:26:32;;;;;;;8.40;1.70;;;;;;;-128.00;-1.00;-1.00;106669;1253;1013421;-77
2023/07/29 08:29:19;;;;;;;9.50;2.30;;;;;;;-128.00;-1.00;-1.00;106617;1253;1010507;-76
2023/07/29 08:32:11;;;;;;;7.40;2.00;;;;;;;-128.00;-1.00;-1.00;106513;1254;1010315;-77
2023/07/29 08:35:07;;;;;;;6.30;1.80;;;;;;;-128.00;-1.00;-1.00;106579;1254;1012455;-73
2023/07/29 08:38:13;;;;;;;6.30;1.70;;;;;;;-128.00;-1.00;-1.00;106587;1254;1012518;-74
2023/07/29 08:41:21;;;;;;;7.20;2.10;;;;;;;-128.00;-1.00;-1.00;106450;1254;1012939;-71
2023/07/29 08:44:25;;;;;;;6.20;1.80;;;;;;;-128.00;-1.00;-1.00;106582;1253;1010457;-76
2023/07/29 08:47:13;;;;;;;7.10;1.80;;;;;;;-128.00;-1.00;-1.00;106592;1253;1011013;-74
2023/07/29 08:50:03;;;;;;;7.00;1.70;;;;;;;-128.00;-1.00;-1.00;106264;1257;1013117;-74
2023/07/29 08:52:59;;;;;;;5.40;1.60;;;;;;;-128.00;-1.00;-1.00;106245;1263;1012755;-79
2023/07/29 08:55:50;;;;;;;6.00;1.90;;;;;;;-128.00;-1.00;-1.00;106264;1260;1012768;-75
2023/07/29 08:58:41;;;;;;;6.30;1.70;;;;;;;-128.00;-1.00;-1.00;106226;1260;1010313;-75
2023/07/29 09:01:30;;;;;;;5.60;1.60;;;;;;;-128.00;-1.00;-1.00;106206;1260;1010994;-78
2023/07/29 09:04:20;;;;;;;6.20;1.90;;;;;;;-128.00;-1.00;-1.00;106235;1260;1012761;-74
2023/07/29 09:07:10;;;;;;;6.60;1.60;;;;;;;-128.00;-1.00;-1.00;106328;1260;1014153;-75
2023/07/29 09:11:43;;;;;;;5.90;1.90;;;;;;;34.02;21.86;99077.92;105940;1289;611826;-79
2023/07/29 09:14:44;;;;;;;9.60;3.60;;;;;;;34.79;22.06;99072.70;108277;1266;57490;-78
2023/07/29 09:17:34;;;;;;;5.40;1.80;;;;;;;35.17;20.45;99071.92;107242;1260;62032;-80
2023/07/29 09:20:37;;;;;;;6.00;1.80;;;;;;;35.15;21.42;99073.80;106477;1266;72640;-75
2023/07/29 09:23:25;;;;;;;8.00;2.10;;;;;;;35.41;21.10;99065.95;106586;1257;66553;-78
2023/07/29 09:26:25;;;;;;;9.00;2.70;;;;;;;35.42;21.37;99068.36;107114;1254;72544;-81
2023/07/29 09:29:12;;;;;;;6.10;1.60;;;;;;;35.61;21.25;99072.89;106832;1254;59960;-79
2023/07/29 09:32:26;;;;;;;5.90;1.80;;;;;;;35.53;20.91;99076.54;108038;1260;59171;-79
2023/07/29 09:35:15;;;;;;;8.30;3.10;;;;;;;34.91;21.30;99071.62;106929;1260;69598;-78
2023/07/29 09:38:05;;;;;;;7.00;1.90;;;;;;;35.26;20.98;99077.83;107334;1260;66427;-79
2023/07/29 09:41:02;;;;;;;6.70;2.10;;;;;;;35.30;20.68;99073.23;107731;1254;71283;-81
2023/07/29 09:44:01;;;;;;;5.90;2.00;;;;;;;35.37;21.10;99065.38;107248;1256;59339;-79
2023/07/29 09:46:49;;;;;;;7.00;2.30;;;;;;;35.70;20.97;99064.23;106665;1257;60984;-79
2023/07/29 09:49:39;;;;;;;6.40;1.80;;;;;;;36.14;20.58;99068.15;107591;1254;70033;-79
2023/07/29 09:52:51;;;;;;;7.00;1.70;;;;;;;36.43;20.57;99067.14;104302;1293;599752;-79
2023/07/29 09:55:46;;;;;;;6.50;2.00;;;;;;;36.34;19.92;99060.16;106966;1269;59157;-79
2023/07/29 09:58:37;;;;;;;6.80;1.60;;;;;;;36.22;20.16;99058.27;107357;1272;60640;-78
2023/07/29 10:01:30;;;;;;;7.00;1.50;;;;;;;36.03;19.82;99057.44;107028;1270;69419;-79
2023/07/29 10:04:19;;;;;;;5.40;1.50;;;;;;;35.92;20.29;99059.68;106011;1269;66537;-77
2023/07/29 10:07:37;;;;;;;5.30;1.30;;;;;;;35.67;19.46;99060.03;106441;1258;278689;-77
2023/07/29 10:10:27;;;;;;;6.40;1.70;;;;;;;35.75;18.96;99053.71;106317;1260;59227;-74
2023/07/29 10:13:29;;;;;;;6.00;1.50;;;;;;;36.02;19.55;99051.61;105827;1258;60479;-75
2023/07/29 10:16:49;;;;;;;6.20;2.00;;;;;;;35.98;19.97;99046.48;106626;1261;70623;-75
2023/07/29 10:19:53;;;;;;;5.30;1.50;;;;;;;35.62;18.24;99041.21;106852;1257;66817;-75
2023/07/29 10:22:47;;;;;;;5.70;1.60;;;;;;;34.96;18.92;99047.09;106422;1257;71512;-77
2023/07/29 10:25:48;;;;;;;5.90;1.50;;;;;;;35.02;19.03;99038.69;107162;1263;59217;-79
2023/07/29 10:28:48;;;;;;;5.30;1.40;;;;;;;35.56;19.16;99036.02;107122;1257;60616;-78
2023/07/29 10:31:38;;;;;;;6.80;1.90;;;;;;;35.87;19.47;99037.08;107438;1258;71394;-78
2023/07/29 10:34:27;;;;;;;7.00;1.80;;;;;;;36.30;19.40;99034.77;106316;1264;67118;-79
2023/07/29 10:37:22;;;;;;;6.30;1.60;;;;;;;36.75;18.83;99022.31;105717;1267;74821;-80
2023/07/29 10:40:12;;;;;;;7.60;1.90;;;;;;;36.70;17.91;99038.73;105677;1263;59239;-78
2023/07/29 10:43:26;;;;;;;7.30;2.00;;;;;;;36.53;18.62;99037.73;106544;1264;59800;-80
2023/07/29 10:46:18;;;;;;;7.80;2.10;;;;;;;36.85;19.18;99030.55;105831;1268;71359;-77
2023/07/29 10:49:07;;;;;;;6.60;1.80;;;;;;;36.83;18.69;99033.69;105799;1267;68185;-78
2023/07/29 10:51:56;;;;;;;5.70;1.70;;;;;;;36.27;18.77;99032.13;106042;1264;71692;-79
2023/07/29 10:55:01;;;;;;;6.00;1.70;;;;;;;35.96;18.56;99029.05;106064;1267;59579;-79
2023/07/29 10:57:50;;;;;;;5.50;1.70;;;;;;;35.98;19.15;99027.41;105998;1267;61480;-70
2023/07/29 11:00:46;;;;;;;6.30;1.70;;;;;;;36.10;19.38;99022.68;105372;1267;71625;-73
2023/07/29 11:03:35;;;;;;;6.20;1.80;;;;;;;36.54;19.71;99021.86;105397;1267;67886;-72
2023/07/29 11:06:25;;;;;;;6.20;1.80;;;;;;;36.49;18.44;99022.33;105084;1270;74342;-69
2023/07/29 11:10:09;;;;;;;5.50;1.60;;;;;;;36.39;18.23;99017.29;105404;1270;59379;-70
2023/07/29 11:12:58;;;;;;;7.40;1.90;;;;;;;35.83;18.47;99020.66;105080;1266;59829;-71
2023/07/29 11:15:48;;;;;;;5.70;1.50;;;;;;;36.01;18.86;99013.60;104943;1267;71416;-68
2023/07/29 11:19:19;;;;;;;5.20;1.50;;;;;;;35.48;18.94;99003.05;103130;1288;616263;-72
2023/07/29 11:22:10;;;;;;;6.40;1.40;;;;;;;34.72;19.50;99002.60;105888;1256;59264;-71
2023/07/29 11:25:05;;;;;;;5.30;1.50;;;;;;;33.90;20.25;99001.90;106180;1253;59370;-70
2023/07/29 11:27:56;;;;;;;5.80;1.70;;;;;;;33.67;20.84;98998.09;106458;1253;69531;-69
2023/07/29 11:30:57;;;;;;;6.50;1.60;;;;;;;33.45;21.30;98991.98;109062;1260;67762;-70
2023/07/29 11:34:00;;;;;;;8.30;1.80;;;;;;;33.29;21.79;98997.45;108514;1262;72663;-74
2023/07/29 11:36:51;;;;;;;5.70;1.50;;;;;;;33.02;22.20;99002.84;108604;1262;57038;-69
2023/07/29 11:39:41;;;;;;;7.00;1.80;;;;;;;32.71;22.05;98992.81;108726;1262;59939;-69
2023/07/29 11:42:28;;;;;;;6.70;1.70;;;;;;;32.30;22.64;98988.65;108881;1262;69583;-70
2023/07/29 11:45:14;;;;;;;6.30;1.80;;;;;;;31.96;23.30;99003.26;108748;1262;67770;-69
2023/07/29 11:48:06;;;;;;;5.30;1.60;;;;;;;31.36;24.22;98999.09;108833;1262;73551;-69
2023/07/29 11:50:55;;;;;;;6.70;1.90;;;;;;;31.31;24.76;98995.50;108724;1262;57189;-70
2023/07/29 11:53:44;;;;;;;6.50;1.80;;;;;;;31.25;24.61;98989.20;108709;1262;58883;-71
2023/07/29 11:56:32;;;;;;;6.00;1.90;;;;;;;30.99;24.89;98985.28;108751;1262;71514;-69
2023/07/29 11:59:20;;;;;;;6.00;2.00;;;;;;;30.86;25.17;98984.45;108651;1262;68073;-70
2023/07/29 12:02:16;;;;;;;6.70;1.90;;;;;;;30.65;24.71;98978.08;108940;1260;72738;-68
2023/07/29 12:05:10;;;;;;;6.20;1.60;;;;;;;30.13;25.45;98979.77;109030;1256;57878;-71
2023/07/29 12:07:56;;;;;;;6.70;1.80;;;;;;;29.34;26.37;98976.02;108973;1256;60255;-67
2023/07/29 12:10:44;;;;;;;5.60;1.70;;;;;;;29.02;26.91;98970.02;109164;1256;71351;-69
2023/07/29 12:13:32;;;;;;;6.40;1.60;;;;;;;28.85;27.46;98964.88;109073;1256;67639;-69
2023/07/29 12:16:19;;;;;;;6.70;1.70;;;;;;;28.50;28.14;98959.66;109116;1256;72711;-71
2023/07/29 12:19:27;;;;;;;6.30;2.00;;;;;;;28.32;29.32;98958.52;108974;1256;57093;-69
2023/07/29 12:22:28;;;;;;;6.80;2.20;;;;;;;28.05;30.19;98946.43;109064;1257;59603;-68
2023/07/29 12:25:35;;;;;;;6.50;2.00;;;;;;;28.00;30.06;98942.67;109088;1255;71544;-69
2023/07/29 12:28:27;;;;;;;7.50;2.30;;;;;;;27.87;30.56;98938.94;109005;1256;67903;-70
2023/07/29 12:31:18;;;;;;;6.50;2.10;;;;;;;27.59;30.65;98941.54;109022;1256;72385;-70
2023/07/29 12:34:20;;;;;;;5.90;1.80;;;;;;;27.45;30.97;98938.02;109203;1256;56917;-72
2023/07/29 12:37:12;;;;;;;6.20;2.20;;;;;;;27.36;31.82;98942.21;109272;1256;60103;-70
2023/07/29 12:40:02;;;;;;;6.90;2.40;;;;;;;27.28;32.52;98940.36;109238;1256;71732;-72
2023/07/29 12:43:22;;;;;;;5.90;2.30;;;;;;;27.08;32.99;98938.95;109291;1256;66739;-75
2023/07/29 12:46:12;;;;;;;5.70;2.10;;;;;;;26.66;33.71;98945.60;109008;1259;72744;-72
2023/07/29 12:48:59;;;;;;;6.60;2.30;;;;;;;26.46;34.33;98945.11;108921;1259;58014;-71
2023/07/29 12:51:46;;;;;;;6.20;2.20;;;;;;;26.42;34.25;98942.81;109164;1256;60176;-73
2023/07/29 12:54:33;;;;;;;7.70;2.20;;;;;;;26.42;34.37;98943.09;109170;1256;69964;-72
2023/07/29 12:57:19;;;;;;;7.50;2.30;;;;;;;26.49;34.26;98937.30;109069;1256;66749;-73
2023/07/29 13:00:08;;;;;;;6.80;2.10;;;;;;;26.43;34.44;98937.54;108996;1256;72980;-72
2023/07/29 13:02:55;;;;;;;6.40;2.30;;;;;;;26.40;34.31;98939.14;109185;1256;57450;-73
2023/07/29 13:05:44;;;;;;;6.50;1.80;;;;;;;26.49;34.21;98940.19;109127;1256;58913;-70
2023/07/29 13:08:32;;;;;;;6.30;2.10;;;;;;;26.69;33.67;98935.73;109130;1256;70652;-69